Time;durP1;ratioP1;P1;durP2;ratioP2;P2;SDS_P1;SDS_P2;PMS_P1;PMS_P2;Temp;Humidity;BMP_temperature;BMP_pressure;BME280_temperature;BME280_humidity;BME280_pressure;Samples;Min_cycle;Max_cycle;Signal;HPM_P1;HPM_P2
2021/12/02 00:00:44;;;;;;;;;;;3.80;99.90;;;;;;5055996;28;19912;-78
2021/12/02 00:03:09;;;;;;;;;;;3.80;99.90;;;;;;5056168;28;20277;-78
2021/12/02 00:05:35;;;;;;;;;;;3.70;99.90;;;;;;5056061;28;20039;-78
2021/12/02 00:08:01;;;;;;;;;;;3.70;99.90;;;;;;5056172;28;20349;-78
2021/12/02 00:10:30;;;;;;;;;;;3.50;99.90;;;;;;5056106;28;19909;-78
2021/12/02 00:12:57;;;;;;;;;;;3.40;99.90;;;;;;5055844;28;19916;-78
2021/12/02 00:15:25;;;;;;;;;;;3.30;99.90;;;;;;5054866;28;20268;-78
2021/12/02 00:18:28;;;;;;;;;;;3.30;99.90;;;;;;5055339;28;19916;-78
2021/12/02 00:21:03;;;;;;;;;;;3.20;99.90;;;;;;5054988;28;19908;-78
2021/12/02 00:23:29;;;;;;;;;;;3.20;99.90;;;;;;5054538;28;20408;-77
2021/12/02 00:25:58;;;;;;;;;;;3.10;99.90;;;;;;5054170;28;20003;-77
2021/12/02 00:28:25;;;;;;;;;;;3.10;99.90;;;;;;5055265;28;20309;-78
2021/12/02 00:30:50;;;;;;;;;;;3.10;99.90;;;;;;5054855;28;19909;-77
2021/12/02 00:33:16;;;;;;;;;;;3.10;99.90;;;;;;5052984;28;19917;-78
2021/12/02 00:35:43;;;;;;;;;;;3.10;99.90;;;;;;5055070;28;20377;-78
2021/12/02 00:38:09;;;;;;;;;;;3.10;99.90;;;;;;5054839;28;19923;-78
2021/12/02 00:40:34;;;;;;;;;;;3.10;99.90;;;;;;5055087;28;19909;-78
2021/12/02 00:43:01;;;;;;;;;;;3.20;99.90;;;;;;5053790;28;19909;-78
2021/12/02 00:45:26;;;;;;;;;;;3.10;99.90;;;;;;5055076;28;20385;-78
2021/12/02 00:47:52;;;;;;;;;;;3.10;99.90;;;;;;5055621;28;19909;-78
2021/12/02 00:50:18;;;;;;;;;;;3.20;99.90;;;;;;5053693;28;19954;-78
2021/12/02 00:52:45;;;;;;;;;;;3.10;99.90;;;;;;5054706;28;20007;-78
2021/12/02 00:55:10;;;;;;;;;;;3.10;99.90;;;;;;5054596;28;19913;-78
2021/12/02 00:57:39;;;;;;;;;;;3.10;99.90;;;;;;5054158;28;19920;-76
2021/12/02 01:00:05;;;;;;;;;;;3.00;99.90;;;;;;5050824;28;19915;-76
2021/12/02 01:02:32;;;;;;;;;;;2.90;99.90;;;;;;5049288;28;19909;-76
2021/12/02 01:04:58;;;;;;;;;;;2.80;99.90;;;;;;5056885;28;19909;-78
2021/12/02 01:07:23;;;;;;;;;;;2.70;99.90;;;;;;5058672;28;20004;-77
2021/12/02 01:09:49;;;;;;;;;;;2.60;99.90;;;;;;5058357;28;19909;-78
2021/12/02 01:12:16;;;;;;;;;;;2.50;99.90;;;;;;5057765;28;19923;-78
2021/12/02 01:14:45;;;;;;;;;;;2.40;99.90;;;;;;5057473;28;19909;-78
2021/12/02 01:17:11;;;;;;;;;;;2.40;99.90;;;;;;5058726;28;19939;-78
2021/12/02 01:19:36;;;;;;;;;;;2.50;99.90;;;;;;5058387;28;20365;-78
2021/12/02 01:22:02;;;;;;;;;;;2.50;99.90;;;;;;5058039;28;19962;-77
2021/12/02 01:24:28;;;;;;;;;;;2.50;99.90;;;;;;5057784;28;19908;-77
2021/12/02 01:26:54;;;;;;;;;;;2.60;99.90;;;;;;5057563;28;19921;-78
2021/12/02 01:29:23;;;;;;;;;;;2.50;99.90;;;;;;5057526;28;20397;-77
2021/12/02 01:31:53;;;;;;;;;;;2.40;99.90;;;;;;5057955;28;19923;-78
2021/12/02 01:34:24;;;;;;;;;;;2.40;99.90;;;;;;5057599;28;19955;-78
2021/12/02 01:36:50;;;;;;;;;;;2.30;99.90;;;;;;5058132;28;19909;-78
2021/12/02 01:39:16;;;;;;;;;;;2.40;99.90;;;;;;5057813;28;19909;-78
2021/12/02 01:41:44;;;;;;;;;;;2.50;99.90;;;;;;5057815;28;19908;-78
2021/12/02 01:44:11;;;;;;;;;;;2.60;99.90;;;;;;5057693;28;20354;-78
2021/12/02 01:46:38;;;;;;;;;;;2.70;99.90;;;;;;5057611;28;20017;-78
2021/12/02 01:49:04;;;;;;;;;;;2.70;99.90;;;;;;5058438;28;19987;-78
2021/12/02 01:51:31;;;;;;;;;;;2.80;99.90;;;;;;5057867;28;20361;-78
2021/12/02 01:54:02;;;;;;;;;;;2.90;99.90;;;;;;5055860;28;20312;-77
2021/12/02 01:56:30;;;;;;;;;;;3.00;99.90;;;;;;5057182;28;19909;-78
2021/12/02 01:59:03;;;;;;;;;;;3.00;99.90;;;;;;5060685;28;20431;-79
2021/12/02 02:01:29;;;;;;;;;;;3.00;99.90;;;;;;5062758;28;19991;-78
2021/12/02 02:03:55;;;;;;;;;;;3.10;99.90;;;;;;5055024;28;20365;-78
2021/12/02 02:06:28;;;;;;;;;;;3.10;99.90;;;;;;5055047;28;19908;-79
2021/12/02 02:08:55;;;;;;;;;;;3.20;99.90;;;;;;5055203;28;19954;-78
2021/12/02 02:11:23;;;;;;;;;;;3.20;99.90;;;;;;5055140;28;19963;-78
2021/12/02 02:13:49;;;;;;;;;;;3.20;99.90;;;;;;5054846;28;19913;-78
2021/12/02 02:16:14;;;;;;;;;;;3.10;99.90;;;;;;5054458;28;19924;-78
2021/12/02 02:18:40;;;;;;;;;;;3.10;99.90;;;;;;5055133;28;19908;-78
2021/12/02 02:21:12;;;;;;;;;;;3.10;99.90;;;;;;5054494;28;19913;-78
2021/12/02 02:23:42;;;;;;;;;;;3.10;99.90;;;;;;5054833;28;19909;-78
2021/12/02 02:26:14;;;;;;;;;;;2.80;99.90;;;;;;5055002;28;19908;-78
2021/12/02 02:28:40;;;;;;;;;;;2.70;99.90;;;;;;5053737;28;20003;-78
2021/12/02 02:31:05;;;;;;;;;;;2.60;99.90;;;;;;5053698;28;20362;-78
2021/12/02 02:33:38;;;;;;;;;;;2.50;99.90;;;;;;5054077;28;19912;-78
2021/12/02 02:36:07;;;;;;;;;;;2.40;99.90;;;;;;5053534;28;19909;-78
2021/12/02 02:38:34;;;;;;;;;;;2.40;99.90;;;;;;5053384;28;19955;-76
2021/12/02 02:41:01;;;;;;;;;;;2.30;99.90;;;;;;5052909;28;20000;-75
2021/12/02 02:43:27;;;;;;;;;;;2.40;99.90;;;;;;5052677;28;19991;-77
2021/12/02 02:45:53;;;;;;;;;;;2.30;99.90;;;;;;5052866;28;20008;-77
2021/12/02 02:48:19;;;;;;;;;;;2.20;99.90;;;;;;5052874;28;19971;-77
2021/12/02 02:50:44;;;;;;;;;;;2.20;99.90;;;;;;5052734;28;19954;-76
2021/12/02 02:53:17;;;;;;;;;;;2.20;99.90;;;;;;5052763;28;19936;-75
2021/12/02 02:55:48;;;;;;;;;;;2.20;99.90;;;;;;5051640;28;19957;-76
2021/12/02 03:00:49;;;;;;;;;;;2.00;99.90;;;;;;5052393;28;19916;-77
2021/12/02 03:03:37;;;;;;;;;;;2.00;99.90;;;;;;5050168;28;19915;-76
2021/12/02 03:06:26;;;;;;;;;;;2.10;99.90;;;;;;5047622;28;19912;-76
2021/12/02 03:09:00;;;;;;;;;;;2.20;99.90;;;;;;5052093;28;19952;-77
2021/12/02 03:11:28;;;;;;;;;;;2.20;99.90;;;;;;5051485;28;20304;-77
2021/12/02 03:13:54;;;;;;;;;;;2.20;99.90;;;;;;5050781;28;19913;-77
2021/12/02 03:19:04;;;;;;;;;;;1.70;99.90;;;;;;5052509;28;20043;-76
2021/12/02 03:21:29;;;;;;;;;;;1.50;99.90;;;;;;5052196;28;20004;-77
2021/12/02 03:23:56;;;;;;;;;;;1.60;99.90;;;;;;5051868;28;19916;-76
2021/12/02 03:26:22;;;;;;;;;;;1.60;99.90;;;;;;5051943;28;19913;-76
2021/12/02 03:28:48;;;;;;;;;;;1.50;99.90;;;;;;5052189;28;19965;-76
2021/12/02 03:31:14;;;;;;;;;;;1.40;99.90;;;;;;5051939;28;19913;-77
2021/12/02 03:33:41;;;;;;;;;;;1.30;99.90;;;;;;5051415;28;19935;-77
2021/12/02 03:36:07;;;;;;;;;;;1.40;99.90;;;;;;5045222;28;20011;-76
2021/12/02 03:38:32;;;;;;;;;;;1.30;99.90;;;;;;5052216;28;20377;-76
2021/12/02 03:40:58;;;;;;;;;;;1.30;99.90;;;;;;5051737;28;20389;-77
2021/12/02 03:43:23;;;;;;;;;;;1.40;99.90;;;;;;5050152;28;19909;-76
2021/12/02 03:45:49;;;;;;;;;;;1.50;99.90;;;;;;5051791;28;19912;-76
2021/12/02 03:48:15;;;;;;;;;;;1.50;99.90;;;;;;5051670;28;20162;-76
2021/12/02 03:50:40;;;;;;;;;;;1.60;99.90;;;;;;5051739;28;19913;-76
2021/12/02 03:53:06;;;;;;;;;;;1.70;99.90;;;;;;5049900;28;19917;-76
2021/12/02 03:55:31;;;;;;;;;;;1.70;99.90;;;;;;5051671;28;19909;-76
2021/12/02 03:57:57;;;;;;;;;;;1.80;99.90;;;;;;5051510;28;19909;-76
2021/12/02 04:00:23;;;;;;;;;;;1.80;99.90;;;;;;5051792;28;20480;-76
2021/12/02 04:02:49;;;;;;;;;;;1.80;99.90;;;;;;5051307;28;19916;-76
2021/12/02 04:05:15;;;;;;;;;;;1.70;99.90;;;;;;5050837;28;19912;-76
2021/12/02 04:07:40;;;;;;;;;;;1.90;99.90;;;;;;5051333;28;19913;-76
2021/12/02 04:10:06;;;;;;;;;;;1.90;99.90;;;;;;5051389;28;20389;-76
2021/12/02 04:15:03;;;;;;;;;;;1.90;99.90;;;;;;5050975;28;19936;-76
2021/12/02 04:17:43;;;;;;;;;;;1.90;99.90;;;;;;5051256;28;19955;-76
2021/12/02 04:20:10;;;;;;;;;;;2.00;99.90;;;;;;5051296;28;19947;-76
2021/12/02 04:22:36;;;;;;;;;;;2.10;99.90;;;;;;5049947;28;19952;-76
2021/12/02 04:25:01;;;;;;;;;;;2.20;99.90;;;;;;5045297;28;20314;-76
2021/12/02 04:27:26;;;;;;;;;;;2.20;99.90;;;;;;5048978;28;19923;-76
2021/12/02 04:29:52;;;;;;;;;;;2.20;99.90;;;;;;5049578;28;19913;-75
2021/12/02 04:32:17;;;;;;;;;;;2.10;99.90;;;;;;5051019;28;19923;-76
2021/12/02 04:34:43;;;;;;;;;;;2.20;99.90;;;;;;5048912;28;20320;-76
2021/12/02 04:37:08;;;;;;;;;;;2.30;99.90;;;;;;5050765;28;19916;-76
2021/12/02 04:39:34;;;;;;;;;;;2.30;99.90;;;;;;5050426;28;19909;-77
2021/12/02 04:41:59;;;;;;;;;;;2.30;99.90;;;;;;5050000;28;19909;-76
2021/12/02 04:44:25;;;;;;;;;;;2.30;99.90;;;;;;5050417;28;20294;-76
2021/12/02 04:46:52;;;;;;;;;;;2.30;99.90;;;;;;5050176;28;19913;-76
2021/12/02 04:49:18;;;;;;;;;;;2.40;99.90;;;;;;5050597;28;19995;-76
2021/12/02 04:51:44;;;;;;;;;;;2.40;99.90;;;;;;5050845;28;20003;-77
2021/12/02 04:54:09;;;;;;;;;;;2.40;99.90;;;;;;5050439;28;19913;-76
2021/12/02 04:56:35;;;;;;;;;;;2.50;99.90;;;;;;5051017;28;19909;-76
2021/12/02 04:59:00;;;;;;;;;;;2.50;99.90;;;;;;5051583;28;20384;-77
2021/12/02 05:01:26;;;;;;;;;;;2.40;99.90;;;;;;5050659;28;20007;-77
2021/12/02 05:03:51;;;;;;;;;;;2.40;99.90;;;;;;5050461;28;19935;-76
2021/12/02 05:06:17;;;;;;;;;;;2.40;99.90;;;;;;5049539;28;20395;-77
2021/12/02 05:08:42;;;;;;;;;;;2.50;99.90;;;;;;5050801;28;20082;-77
2021/12/02 05:11:08;;;;;;;;;;;2.50;99.90;;;;;;5049375;28;20357;-77
2021/12/02 05:13:33;;;;;;;;;;;2.60;99.90;;;;;;5050286;28;19913;-77
2021/12/02 05:15:59;;;;;;;;;;;2.60;99.90;;;;;;5051245;28;20400;-77
2021/12/02 05:18:24;;;;;;;;;;;2.60;99.90;;;;;;5048193;28;19916;-78
2021/12/02 05:20:50;;;;;;;;;;;2.60;99.90;;;;;;5050301;28;19908;-77
2021/12/02 05:23:15;;;;;;;;;;;2.60;99.90;;;;;;5051698;28;19920;-77
2021/12/02 05:25:44;;;;;;;;;;;2.50;99.90;;;;;;5051980;28;20050;-77
2021/12/02 05:28:11;;;;;;;;;;;2.60;99.90;;;;;;5051327;28;19924;-77
2021/12/02 05:30:37;;;;;;;;;;;2.50;99.90;;;;;;5051388;28;20402;-77
2021/12/02 05:33:02;;;;;;;;;;;2.50;99.90;;;;;;5050463;28;19913;-77
2021/12/02 05:35:27;;;;;;;;;;;2.50;99.90;;;;;;5045970;28;20339;-77
2021/12/02 05:37:53;;;;;;;;;;;2.40;99.90;;;;;;5050380;28;19939;-77
2021/12/02 05:40:19;;;;;;;;;;;2.50;99.90;;;;;;5050537;28;19913;-76
2021/12/02 05:42:44;;;;;;;;;;;2.40;99.90;;;;;;5048290;28;20362;-77
2021/12/02 05:45:09;;;;;;;;;;;2.40;99.90;;;;;;5050071;28;19915;-77
2021/12/02 05:47:35;;;;;;;;;;;2.40;99.90;;;;;;5050913;28;19909;-77
2021/12/02 05:50:01;;;;;;;;;;;2.40;99.90;;;;;;5050816;28;20421;-77
2021/12/02 05:52:26;;;;;;;;;;;2.40;99.90;;;;;;5053973;28;19917;-77
2021/12/02 05:54:52;;;;;;;;;;;2.40;99.90;;;;;;5052379;28;20370;-77
2021/12/02 05:57:18;;;;;;;;;;;2.40;99.90;;;;;;5054244;28;20021;-77
2021/12/02 05:59:44;;;;;;;;;;;2.50;99.90;;;;;;5054342;28;20448;-77
2021/12/02 06:02:09;;;;;;;;;;;2.50;99.90;;;;;;5053431;28;19908;-77
2021/12/02 06:04:37;;;;;;;;;;;2.50;99.90;;;;;;5054992;28;19909;-77
2021/12/02 06:07:03;;;;;;;;;;;2.50;99.90;;;;;;5054989;28;19917;-77
2021/12/02 06:09:29;;;;;;;;;;;2.40;99.90;;;;;;5054137;28;20374;-77
2021/12/02 06:11:54;;;;;;;;;;;2.40;99.90;;;;;;5054183;28;20007;-77
2021/12/02 06:14:20;;;;;;;;;;;2.40;99.90;;;;;;5054380;28;19913;-77
2021/12/02 06:16:45;;;;;;;;;;;2.40;99.90;;;;;;5051699;28;19909;-77
2021/12/02 06:19:11;;;;;;;;;;;2.40;99.90;;;;;;5054415;28;19971;-77
2021/12/02 06:21:37;;;;;;;;;;;2.40;99.90;;;;;;5052644;28;20452;-77
2021/12/02 06:24:04;;;;;;;;;;;2.30;99.90;;;;;;5050807;28;19916;-78
2021/12/02 06:26:30;;;;;;;;;;;2.30;99.90;;;;;;5054351;28;19956;-78
2021/12/02 06:28:55;;;;;;;;;;;2.30;99.90;;;;;;5051768;28;19929;-77
2021/12/02 06:31:21;;;;;;;;;;;2.20;99.90;;;;;;5050833;28;19999;-78
2021/12/02 06:33:46;;;;;;;;;;;2.30;99.90;;;;;;5048261;28;19950;-78
2021/12/02 06:36:12;;;;;;;;;;;2.20;99.90;;;;;;5048523;28;19919;-77
2021/12/02 06:38:40;;;;;;;;;;;2.20;99.90;;;;;;5046849;28;20392;-77
2021/12/02 06:41:05;;;;;;;;;;;2.20;99.90;;;;;;5047311;28;19913;-78
2021/12/02 06:43:31;;;;;;;;;;;2.10;99.90;;;;;;5049606;28;19916;-77
2021/12/02 06:45:56;;;;;;;;;;;2.00;99.90;;;;;;5049603;28;19995;-78
2021/12/02 06:48:22;;;;;;;;;;;2.10;99.90;;;;;;5053703;28;19971;-76
2021/12/02 06:50:48;;;;;;;;;;;2.10;99.90;;;;;;5055343;28;19915;-78
2021/12/02 06:53:16;;;;;;;;;;;2.00;99.90;;;;;;5055216;28;20569;-78
2021/12/02 06:55:42;;;;;;;;;;;1.80;99.90;;;;;;5055462;28;19909;-77
2021/12/02 06:58:07;;;;;;;;;;;1.80;99.90;;;;;;5055502;28;19966;-78
2021/12/02 07:00:33;;;;;;;;;;;1.70;99.90;;;;;;5055587;28;19908;-77
2021/12/02 07:03:00;;;;;;;;;;;1.60;99.90;;;;;;5051617;28;20679;-77
2021/12/02 07:05:27;;;;;;;;;;;1.40;99.90;;;;;;5048630;28;20416;-77
2021/12/02 07:07:53;;;;;;;;;;;1.30;99.90;;;;;;5048802;28;20397;-77
2021/12/02 07:10:22;;;;;;;;;;;1.30;99.90;;;;;;5048566;28;19908;-77
2021/12/02 07:12:51;;;;;;;;;;;1.30;99.90;;;;;;5046594;28;19916;-77
2021/12/02 07:15:25;;;;;;;;;;;1.10;99.90;;;;;;5048546;28;19912;-77
2021/12/02 07:17:55;;;;;;;;;;;1.00;99.90;;;;;;5044837;28;20338;-77
2021/12/02 07:20:20;;;;;;;;;;;1.00;99.90;;;;;;5047733;28;19915;-77
2021/12/02 07:22:46;;;;;;;;;;;1.00;99.90;;;;;;5048783;28;19995;-78
2021/12/02 07:25:12;;;;;;;;;;;0.90;99.90;;;;;;5047067;28;19966;-78
2021/12/02 07:27:37;;;;;;;;;;;0.80;99.90;;;;;;5046608;28;19923;-77
2021/12/02 07:30:04;;;;;;;;;;;0.90;99.90;;;;;;5048255;28;19916;-77
2021/12/02 07:32:33;;;;;;;;;;;0.90;99.90;;;;;;5050917;28;19964;-77
2021/12/02 07:35:00;;;;;;;;;;;0.90;99.90;;;;;;5053273;28;19955;-77
2021/12/02 07:37:26;;;;;;;;;;;0.90;99.90;;;;;;5054353;28;19909;-77
2021/12/02 07:39:52;;;;;;;;;;;0.90;99.90;;;;;;5052843;28;19963;-77
2021/12/02 07:42:18;;;;;;;;;;;0.90;99.90;;;;;;5051747;28;20319;-77
2021/12/02 07:44:43;;;;;;;;;;;0.90;99.90;;;;;;5052959;28;19909;-76
2021/12/02 07:47:09;;;;;;;;;;;1.10;99.90;;;;;;5053303;28;19924;-77
2021/12/02 07:49:34;;;;;;;;;;;1.20;99.90;;;;;;5053343;28;19908;-77
2021/12/02 07:52:00;;;;;;;;;;;1.30;99.90;;;;;;5052144;28;19941;-77
2021/12/02 07:54:26;;;;;;;;;;;1.20;99.90;;;;;;5050505;28;20277;-77
2021/12/02 07:56:52;;;;;;;;;;;1.20;99.90;;;;;;5049098;28;19913;-77
2021/12/02 07:59:18;;;;;;;;;;;1.00;99.90;;;;;;5050836;28;19912;-76
2021/12/02 08:01:44;;;;;;;;;;;1.10;99.90;;;;;;5049277;28;20273;-77
2021/12/02 08:04:10;;;;;;;;;;;1.00;99.90;;;;;;5049423;28;19909;-76
2021/12/02 08:06:35;;;;;;;;;;;1.00;99.90;;;;;;5051745;28;20273;-76
2021/12/02 08:09:01;;;;;;;;;;;1.20;99.90;;;;;;5051995;28;20416;-77
2021/12/02 08:11:26;;;;;;;;;;;1.50;99.90;;;;;;5051791;28;20388;-77
2021/12/02 08:13:55;;;;;;;;;;;1.70;99.90;;;;;;5050630;28;20280;-76
2021/12/02 08:16:20;;;;;;;;;;;1.90;99.90;;;;;;5052082;28;19912;-77
2021/12/02 08:18:46;;;;;;;;;;;2.10;99.90;;;;;;5052789;28;20042;-76
2021/12/02 08:21:11;;;;;;;;;;;2.50;99.90;;;;;;5052980;28;19908;-77
2021/12/02 08:23:37;;;;;;;;;;;2.40;99.90;;;;;;5051895;28;19974;-77
2021/12/02 08:26:02;;;;;;;;;;;2.70;99.90;;;;;;5050853;28;19975;-77
2021/12/02 08:28:28;;;;;;;;;;;2.90;99.90;;;;;;5052836;28;19927;-77
2021/12/02 08:30:54;;;;;;;;;;;2.70;99.90;;;;;;5053052;28;19915;-77
2021/12/02 08:33:20;;;;;;;;;;;2.70;99.90;;;;;;5044755;28;19919;-77
2021/12/02 08:35:46;;;;;;;;;;;3.30;99.90;;;;;;5053202;28;19956;-77
2021/12/02 08:38:14;;;;;;;;;;;3.70;99.90;;;;;;5052208;28;20372;-77
2021/12/02 08:40:40;;;;;;;;;;;3.70;99.90;;;;;;5049352;28;19916;-77
2021/12/02 08:43:09;;;;;;;;;;;3.20;99.90;;;;;;5052971;28;19908;-78
2021/12/02 08:45:35;;;;;;;;;;;3.10;99.90;;;;;;5053261;28;20276;-77
2021/12/02 08:48:02;;;;;;;;;;;3.40;99.90;;;;;;5053668;28;20005;-77
2021/12/02 08:50:27;;;;;;;;;;;5.10;99.90;;;;;;5052987;28;19916;-77
2021/12/02 08:52:53;;;;;;;;;;;6.10;99.90;;;;;;5053366;28;19912;-78
2021/12/02 08:55:20;;;;;;;;;;;6.20;99.90;;;;;;5051631;28;19916;-78
2021/12/02 08:57:46;;;;;;;;;;;6.60;99.90;;;;;;5053629;28;19956;-77
2021/12/02 09:00:14;;;;;;;;;;;7.40;99.90;;;;;;5051052;28;19916;-77
2021/12/02 09:02:40;;;;;;;;;;;6.90;99.90;;;;;;5046562;28;19986;-77
2021/12/02 09:05:05;;;;;;;;;;;7.00;99.90;;;;;;5052082;28;19913;-77
2021/12/02 09:07:31;;;;;;;;;;;7.40;99.90;;;;;;5049520;28;19999;-76
2021/12/02 09:09:57;;;;;;;;;;;6.30;99.90;;;;;;5051807;28;19912;-77
2021/12/02 09:12:23;;;;;;;;;;;5.60;99.90;;;;;;5053576;28;20430;-78
2021/12/02 09:14:49;;;;;;;;;;;5.40;99.90;;;;;;5051487;28;19908;-78
2021/12/02 09:17:14;;;;;;;;;;;5.70;99.90;;;;;;5052753;28;19909;-78
2021/12/02 09:19:40;;;;;;;;;;;6.20;99.90;;;;;;5052352;28;19912;-78
2021/12/02 09:22:05;;;;;;;;;;;5.50;99.90;;;;;;5052922;28;19909;-78
2021/12/02 09:24:31;;;;;;;;;;;5.20;99.90;;;;;;5053806;28;19971;-78
2021/12/02 09:26:56;;;;;;;;;;;4.90;99.90;;;;;;5056419;28;20342;-78
2021/12/02 09:29:22;;;;;;;;;;;4.70;99.90;;;;;;5056732;28;20034;-78
2021/12/02 09:31:48;;;;;;;;;;;4.70;99.90;;;;;;5055611;28;19916;-77
2021/12/02 09:34:14;;;;;;;;;;;4.80;99.90;;;;;;5053030;28;19913;-78
2021/12/02 09:36:41;;;;;;;;;;;4.80;99.90;;;;;;5056906;28;19952;-78
2021/12/02 09:39:07;;;;;;;;;;;5.20;99.90;;;;;;5055055;28;20398;-78
2021/12/02 09:41:33;;;;;;;;;;;5.20;99.90;;;;;;5057843;28;19909;-78
2021/12/02 09:43:59;;;;;;;;;;;5.20;99.90;;;;;;5056396;28;20393;-78
2021/12/02 09:46:24;;;;;;;;;;;5.40;99.90;;;;;;5057441;28;19909;-78
2021/12/02 09:48:51;;;;;;;;;;;5.20;99.90;;;;;;5057458;28;19962;-77
2021/12/02 09:51:24;;;;;;;;;;;5.00;99.90;;;;;;5057533;28;19912;-78
2021/12/02 09:56:29;;;;;;;;;;;4.80;99.90;;;;;;5057668;28;19909;-78
2021/12/02 09:59:01;;;;;;;;;;;4.80;99.90;;;;;;5056092;28;19909;-78
2021/12/02 10:01:37;;;;;;;;;;;4.60;99.90;;;;;;5051204;28;20398;-78
2021/12/02 10:04:04;;;;;;;;;;;4.60;99.90;;;;;;5052404;28;20388;-78
2021/12/02 10:06:31;;;;;;;;;;;4.50;99.90;;;;;;5056223;28;20391;-78
2021/12/02 10:09:14;;;;;;;;;;;4.40;99.90;;;;;;5056539;28;19920;-78
2021/12/02 10:11:49;;;;;;;;;;;4.40;99.90;;;;;;5048958;28;20357;-78
2021/12/02 10:14:28;;;;;;;;;;;4.30;99.90;;;;;;5053673;28;19917;-78
2021/12/02 10:17:05;;;;;;;;;;;4.10;99.90;;;;;;5052811;28;20392;-78
2021/12/02 10:19:31;;;;;;;;;;;4.10;99.90;;;;;;5053963;28;19913;-78
2021/12/02 10:22:03;;;;;;;;;;;4.00;99.90;;;;;;5053765;28;20348;-78
2021/12/02 10:24:29;;;;;;;;;;;4.00;99.90;;;;;;5052147;28;19961;-78
2021/12/02 10:27:00;;;;;;;;;;;3.90;99.90;;;;;;5050316;28;20066;-78
2021/12/02 10:29:30;;;;;;;;;;;3.80;99.90;;;;;;5052066;28;19908;-78
2021/12/02 10:32:07;;;;;;;;;;;3.80;99.90;;;;;;5053373;28;19908;-79
2021/12/02 10:34:45;;;;;;;;;;;3.50;99.90;;;;;;5051313;28;19913;-78
2021/12/02 10:37:10;;;;;;;;;;;3.40;99.90;;;;;;5048140;28;19909;-78
2021/12/02 10:39:36;;;;;;;;;;;3.20;99.90;;;;;;5054440;28;19968;-78
2021/12/02 10:42:05;;;;;;;;;;;2.80;99.90;;;;;;5045857;28;19963;-78
2021/12/02 10:44:34;;;;;;;;;;;2.90;99.90;;;;;;5051271;28;19917;-78
2021/12/02 10:47:02;;;;;;;;;;;2.70;99.90;;;;;;5052040;28;19909;-78
2021/12/02 10:49:29;;;;;;;;;;;2.70;99.90;;;;;;5047609;28;19909;-80
2021/12/02 10:51:56;;;;;;;;;;;2.70;99.90;;;;;;5052730;28;19912;-78
2021/12/02 10:54:26;;;;;;;;;;;2.70;99.90;;;;;;5052007;28;19995;-81
2021/12/02 10:56:56;;;;;;;;;;;2.60;99.90;;;;;;5048931;28;19909;-78
2021/12/02 10:59:22;;;;;;;;;;;2.50;99.90;;;;;;5051453;28;19952;-78
2021/12/02 11:01:48;;;;;;;;;;;2.30;99.90;;;;;;5045547;28;19955;-79
2021/12/02 11:04:14;;;;;;;;;;;2.20;99.90;;;;;;5049737;28;20015;-78
2021/12/02 11:06:41;;;;;;;;;;;2.00;99.90;;;;;;5052228;28;19909;-78
2021/12/02 11:09:22;;;;;;;;;;;2.20;99.90;;;;;;5047188;28;20320;-79
2021/12/02 11:12:03;;;;;;;;;;;2.40;99.90;;;;;;5045604;28;20365;-78
2021/12/02 11:14:28;;;;;;;;;;;2.40;99.90;;;;;;5051763;28;20377;-79
2021/12/02 11:17:05;;;;;;;;;;;2.60;99.90;;;;;;5048665;28;20050;-78
2021/12/02 11:19:30;;;;;;;;;;;2.30;99.90;;;;;;5053463;28;19916;-79
2021/12/02 11:22:06;;;;;;;;;;;2.20;99.90;;;;;;5054311;28;19908;-78
2021/12/02 11:24:33;;;;;;;;;;;2.40;99.90;;;;;;5052069;28;19908;-78
2021/12/02 11:27:05;;;;;;;;;;;2.40;99.90;;;;;;5052487;28;19924;-79
2021/12/02 11:29:46;;;;;;;;;;;2.70;99.90;;;;;;5052267;28;19936;-79
2021/12/02 11:32:25;;;;;;;;;;;2.60;99.90;;;;;;5052427;28;19966;-78
2021/12/02 11:35:00;;;;;;;;;;;2.20;99.90;;;;;;5051633;28;20298;-79
2021/12/02 11:37:26;;;;;;;;;;;2.20;99.90;;;;;;5051204;28;19916;-78
2021/12/02 11:39:53;;;;;;;;;;;2.50;99.90;;;;;;5051839;28;19911;-78
2021/12/02 11:42:19;;;;;;;;;;;2.40;99.90;;;;;;5052082;28;19912;-78
2021/12/02 11:44:46;;;;;;;;;;;2.50;99.90;;;;;;5051766;28;20167;-78
2021/12/02 11:47:11;;;;;;;;;;;2.60;99.90;;;;;;5051939;28;19909;-78
2021/12/02 11:49:37;;;;;;;;;;;2.60;99.90;;;;;;5051172;28;19916;-79
2021/12/02 11:52:03;;;;;;;;;;;2.40;99.90;;;;;;5051705;28;20273;-78
2021/12/02 11:54:28;;;;;;;;;;;2.70;99.90;;;;;;5051783;28;19999;-78
2021/12/02 11:56:54;;;;;;;;;;;2.80;99.90;;;;;;5051877;28;19909;-78
2021/12/02 11:59:21;;;;;;;;;;;2.80;99.90;;;;;;5049934;28;19909;-78
2021/12/02 12:01:46;;;;;;;;;;;2.60;99.90;;;;;;5049284;28;19916;-78
2021/12/02 12:04:13;;;;;;;;;;;2.60;99.90;;;;;;5047646;28;19917;-78
2021/12/02 12:06:41;;;;;;;;;;;2.70;99.90;;;;;;5051580;28;20008;-78
2021/12/02 12:09:11;;;;;;;;;;;2.70;99.90;;;;;;5051878;28;20293;-78
2021/12/02 12:11:43;;;;;;;;;;;2.60;99.90;;;;;;5051795;28;20034;-78
2021/12/02 12:14:10;;;;;;;;;;;2.50;99.90;;;;;;5051527;28;19917;-78
2021/12/02 12:16:45;;;;;;;;;;;2.50;99.90;;;;;;5051680;28;19909;-79
2021/12/02 12:19:26;;;;;;;;;;;2.60;99.90;;;;;;5051640;28;20278;-78
2021/12/02 12:22:02;;;;;;;;;;;2.30;99.90;;;;;;5051279;28;19944;-79
2021/12/02 12:24:40;;;;;;;;;;;2.20;99.90;;;;;;5049993;28;19958;-78
2021/12/02 12:27:11;;;;;;;;;;;2.20;99.90;;;;;;5050161;28;19917;-78
2021/12/02 12:29:37;;;;;;;;;;;2.30;99.90;;;;;;5051586;28;19958;-78
2021/12/02 12:32:07;;;;;;;;;;;2.40;99.90;;;;;;5051440;28;19909;-78
2021/12/02 12:37:26;;;;;;;;;;;2.40;99.90;;;;;;5051409;28;20396;-78
2021/12/02 12:40:09;;;;;;;;;;;2.50;99.90;;;;;;5049906;28;19920;-78
2021/12/02 12:42:35;;;;;;;;;;;2.40;99.90;;;;;;5051587;28;19916;-79
2021/12/02 12:45:02;;;;;;;;;;;2.40;99.90;;;;;;5050522;28;19913;-78
2021/12/02 12:47:40;;;;;;;;;;;2.40;99.90;;;;;;5051461;28;19963;-78
2021/12/02 12:50:35;;;;;;;;;;;2.50;99.90;;;;;;5051706;28;20405;-78
2021/12/02 12:53:04;;;;;;;;;;;2.30;99.90;;;;;;5037468;28;19979;-78
2021/12/02 12:55:52;;;;;;;;;;;2.40;99.90;;;;;;5051485;28;19913;-77
2021/12/02 12:58:17;;;;;;;;;;;2.60;99.90;;;;;;5044287;28;19908;-78
2021/12/02 13:00:43;;;;;;;;;;;2.60;99.90;;;;;;5050325;28;20007;-78
2021/12/02 13:03:19;;;;;;;;;;;2.50;99.90;;;;;;5052333;28;19943;-79
2021/12/02 13:05:52;;;;;;;;;;;2.40;99.90;;;;;;5047515;28;19909;-78
2021/12/02 13:08:22;;;;;;;;;;;2.50;99.90;;;;;;5054160;28;20348;-78
2021/12/02 13:10:56;;;;;;;;;;;2.60;99.90;;;;;;5054777;28;19916;-78
2021/12/02 13:13:21;;;;;;;;;;;2.90;99.90;;;;;;5048390;28;20011;-78
2021/12/02 13:15:47;;;;;;;;;;;2.90;99.90;;;;;;5054722;28;19913;-78
2021/12/02 13:18:29;;;;;;;;;;;2.60;99.90;;;;;;5054157;28;20369;-77
2021/12/02 13:20:54;;;;;;;;;;;2.70;99.90;;;;;;5054870;28;19948;-78
2021/12/02 13:23:21;;;;;;;;;;;2.80;99.90;;;;;;5054538;28;19956;-78
2021/12/02 13:25:50;;;;;;;;;;;2.80;99.90;;;;;;5057170;28;20362;-77
2021/12/02 13:28:21;;;;;;;;;;;2.70;99.90;;;;;;5056653;28;20432;-77
2021/12/02 13:30:48;;;;;;;;;;;2.70;99.90;;;;;;5056535;28;19919;-77
2021/12/02 13:33:13;;;;;;;;;;;2.80;99.90;;;;;;5056878;28;19956;-77
2021/12/02 13:35:39;;;;;;;;;;;2.70;99.90;;;;;;5057445;28;19932;-77
2021/12/02 13:38:05;;;;;;;;;;;2.70;99.90;;;;;;5058514;28;19920;-77
2021/12/02 13:40:37;;;;;;;;;;;2.80;99.90;;;;;;5056881;28;20003;-78
2021/12/02 13:43:04;;;;;;;;;;;2.80;99.90;;;;;;5055896;28;19954;-77
2021/12/02 13:45:30;;;;;;;;;;;2.80;99.90;;;;;;5054131;28;20250;-77
2021/12/02 13:48:12;;;;;;;;;;;2.70;99.90;;;;;;5051465;28;19980;-77
2021/12/02 13:50:41;;;;;;;;;;;2.70;99.90;;;;;;5053114;28;19913;-75
2021/12/02 13:53:07;;;;;;;;;;;2.70;99.90;;;;;;5054121;28;19916;-77
2021/12/02 13:55:37;;;;;;;;;;;2.60;99.90;;;;;;5054640;28;20420;-77
2021/12/02 13:58:30;;;;;;;;;;;2.60;99.90;;;;;;5054784;28;19995;-77
2021/12/02 14:00:51;;;;;;;;;;;2.60;99.90;;;;;;5050393;28;19916;-77
2021/12/02 14:03:21;;;;;;;;;;;2.50;99.90;;;;;;5047749;28;19920;-78
2021/12/02 14:05:48;;;;;;;;;;;2.60;99.90;;;;;;5050050;28;19912;-77
2021/12/02 14:08:21;;;;;;;;;;;2.60;99.90;;;;;;5047623;28;20285;-77
2021/12/02 14:10:47;;;;;;;;;;;2.40;99.90;;;;;;5047657;28;19939;-78
2021/12/02 14:13:12;;;;;;;;;;;2.10;99.90;;;;;;5052406;28;20356;-78
2021/12/02 14:15:38;;;;;;;;;;;1.90;99.90;;;;;;5051523;28;19920;-77
2021/12/02 14:18:21;;;;;;;;;;;1.80;99.90;;;;;;5048659;28;19909;-77
2021/12/02 14:20:49;;;;;;;;;;;1.80;99.90;;;;;;5049931;28;19931;-77
2021/12/02 14:23:15;;;;;;;;;;;1.70;99.90;;;;;;5053463;28;19915;-77
2021/12/02 14:25:42;;;;;;;;;;;1.70;99.90;;;;;;5054303;28;19909;-77
2021/12/02 14:28:21;;;;;;;;;;;1.30;99.90;;;;;;5053613;28;19920;-78
2021/12/02 14:30:49;;;;;;;;;;;1.30;99.90;;;;;;5053656;28;20046;-78
2021/12/02 14:33:15;;;;;;;;;;;1.40;99.90;;;;;;5053361;28;19948;-78
2021/12/02 14:35:56;;;;;;;;;;;1.40;99.90;;;;;;5053737;28;20273;-78
2021/12/02 14:38:25;;;;;;;;;;;1.40;99.90;;;;;;5053302;28;20278;-79
2021/12/02 14:40:56;;;;;;;;;;;1.50;99.90;;;;;;5053490;28;19935;-78
2021/12/02 14:43:32;;;;;;;;;;;1.50;99.90;;;;;;5053352;28;19912;-78
2021/12/02 14:46:27;;;;;;;;;;;1.50;99.90;;;;;;5049418;28;19909;-78
2021/12/02 14:49:01;;;;;;;;;;;1.50;99.90;;;;;;5042754;28;19909;-78